Time;durP1;ratioP1;P1;durP2;ratioP2;P2;SDS_P1;SDS_P2;PMS_P1;PMS_P2;Temp;Humidity;BMP_temperature;BMP_pressure;BME280_temperature;BME280_humidity;BME280_pressure;Samples;Min_cycle;Max_cycle;Signal;HPM_P1;HPM_P2
2023/11/08 00:00:25;;;;;;;;;;;;;;;8.92;67.25;97950.59;5086714;28;20298;-76
2023/11/08 00:03:14;;;;;;;;;;;;;;;9.01;66.73;97947.22;5085045;28;19932;-76
2023/11/08 00:06:05;;;;;;;;;;;;;;;9.01;66.62;97949.91;5090543;28;20430;-77
2023/11/08 00:08:53;;;;;;;;;;;;;;;9.01;66.80;97952.63;5079036;28;19924;-79
2023/11/08 00:11:43;;;;;;;;;;;;;;;8.99;66.42;97960.22;5091557;28;19924;-76
2023/11/08 00:14:31;;;;;;;;;;;;;;;8.97;66.19;97955.13;5084352;28;19947;-76
2023/11/08 00:17:20;;;;;;;;;;;;;;;8.98;65.91;97953.22;5087214;28;19924;-80
2023/11/08 00:20:12;;;;;;;;;;;;;;;8.88;66.02;97954.19;5081008;28;20401;-76
2023/11/08 00:23:00;;;;;;;;;;;;;;;8.92;66.45;97961.44;5058567;28;19928;-76
2023/11/08 00:25:48;;;;;;;;;;;;;;;8.83;67.03;97965.94;5086335;28;20252;-76
2023/11/08 00:28:39;;;;;;;;;;;;;;;8.83;66.95;97960.50;5082226;28;20312;-78
2023/11/08 00:31:27;;;;;;;;;;;;;;;8.76;67.11;97960.09;5067683;28;19924;-76
2023/11/08 00:34:16;;;;;;;;;;;;;;;8.81;67.16;97964.63;5092698;28;19942;-76
2023/11/08 00:37:04;;;;;;;;;;;;;;;8.91;66.12;97964.44;5071764;28;19932;-76
2023/11/08 00:39:52;;;;;;;;;;;;;;;9.03;66.23;97961.25;5081237;28;20070;-78
2023/11/08 00:42:40;;;;;;;;;;;;;;;8.75;66.31;97955.78;5090242;28;19924;-78
2023/11/08 00:45:30;;;;;;;;;;;;;;;8.81;66.88;97956.50;5088491;28;19931;-77
2023/11/08 00:48:23;;;;;;;;;;;;;;;9.02;66.45;97959.66;5083364;28;19932;-77
2023/11/08 00:51:12;;;;;;;;;;;;;;;9.04;65.84;97960.13;5085887;28;19924;-76
2023/11/08 00:54:01;;;;;;;;;;;;;;;9.11;65.29;97963.28;5076811;28;20058;-76
2023/11/08 00:56:49;;;;;;;;;;;;;;;9.04;65.43;97946.59;5068523;28;20015;-76
2023/11/08 00:59:38;;;;;;;;;;;;;;;9.08;64.92;97948.41;5088015;28;19927;-76
2023/11/08 01:02:27;;;;;;;;;;;;;;;9.13;64.59;97956.44;5076640;28;19977;-76
2023/11/08 01:05:15;;;;;;;;;;;;;;;9.17;64.51;97951.22;5075297;28;19983;-76
2023/11/08 01:08:04;;;;;;;;;;;;;;;9.10;64.08;97950.81;5076821;28;19964;-78
2023/11/08 01:10:52;;;;;;;;;;;;;;;9.05;64.20;97945.47;5076825;28;19924;-76
2023/11/08 01:13:40;;;;;;;;;;;;;;;8.87;65.57;97947.97;5071643;28;19924;-76
2023/11/08 01:16:28;;;;;;;;;;;;;;;8.99;64.78;97946.69;5089126;28;19928;-76
2023/11/08 01:19:19;;;;;;;;;;;;;;;8.98;65.87;97947.78;5090011;28;19924;-76
2023/11/08 01:22:09;;;;;;;;;;;;;;;8.86;65.51;97943.66;5069244;28;20378;-75
2023/11/08 01:24:57;;;;;;;;;;;;;;;9.14;64.78;97951.81;5069016;28;20451;-76
2023/11/08 01:27:45;;;;;;;;;;;;;;;9.04;64.19;97954.72;5068102;28;19928;-78
2023/11/08 01:30:33;;;;;;;;;;;;;;;8.79;64.01;97959.53;5068459;28;19924;-76
2023/11/08 01:33:21;;;;;;;;;;;;;;;9.14;64.07;97959.94;5059961;28;19975;-76
2023/11/08 01:36:11;;;;;;;;;;;;;;;8.91;63.99;97954.41;5083593;28;19932;-76
2023/11/08 01:38:59;;;;;;;;;;;;;;;9.05;63.56;97959.03;5063858;28;19924;-75
2023/11/08 01:41:48;;;;;;;;;;;;;;;9.03;63.16;97963.97;5081839;28;20370;-76
2023/11/08 01:44:38;;;;;;;;;;;;;;;9.07;63.25;97968.47;5068515;28;19990;-75
2023/11/08 01:47:26;;;;;;;;;;;;;;;8.95;63.46;97970.06;5070313;28;19943;-75
2023/11/08 01:50:14;;;;;;;;;;;;;;;8.93;63.80;97973.88;5062122;28;19949;-76
2023/11/08 01:53:04;;;;;;;;;;;;;;;8.90;64.27;97970.97;5069169;28;19967;-75
2023/11/08 01:55:52;;;;;;;;;;;;;;;8.88;64.47;97965.03;5063534;28;19932;-76
2023/11/08 01:58:40;;;;;;;;;;;;;;;8.81;63.60;97965.44;5055101;28;19935;-82
2023/11/08 02:01:29;;;;;;;;;;;;;;;8.97;63.30;97970.56;5065537;28;20290;-77
2023/11/08 02:04:17;;;;;;;;;;;;;;;8.83;64.13;97965.13;5067623;28;19924;-76
2023/11/08 02:07:05;;;;;;;;;;;;;;;8.79;64.26;97961.41;5057260;28;19925;-76
2023/11/08 02:09:54;;;;;;;;;;;;;;;9.02;63.87;97973.19;5068072;28;19978;-76
2023/11/08 02:12:44;;;;;;;;;;;;;;;8.88;63.23;97967.75;5069914;28;19924;-80
2023/11/08 02:15:38;;;;;;;;;;;;;;;8.72;63.89;97972.63;5065429;28;19973;-76
2023/11/08 02:18:27;;;;;;;;;;;;;;;8.88;62.51;97965.84;5063905;28;19929;-79
2023/11/08 02:21:15;;;;;;;;;;;;;;;8.97;62.62;97976.00;5076953;28;19939;-79
2023/11/08 02:24:13;;;;;;;;;;;;;;;8.90;62.82;97966.38;5069407;28;20077;-76
2023/11/08 02:27:02;;;;;;;;;;;;;;;9.09;62.40;97965.47;5082291;28;19924;-75
2023/11/08 02:29:50;;;;;;;;;;;;;;;9.14;61.36;97959.94;5085733;28;20238;-78
2023/11/08 02:32:38;;;;;;;;;;;;;;;9.01;61.84;97963.47;5085568;28;19925;-76
2023/11/08 02:35:26;;;;;;;;;;;;;;;8.95;62.03;97959.22;5080147;28;20653;-75
2023/11/08 02:38:15;;;;;;;;;;;;;;;9.01;61.36;97963.47;5077517;28;19931;-80
2023/11/08 02:41:08;;;;;;;;;;;;;;;9.06;62.01;97966.88;5089428;28;19937;-76
2023/11/08 02:43:56;;;;;;;;;;;;;;;9.06;61.23;97964.16;5087341;28;19928;-76
2023/11/08 02:46:44;;;;;;;;;;;;;;;9.22;61.26;97970.09;5083080;28;20443;-76
2023/11/08 02:49:32;;;;;;;;;;;;;;;9.06;60.92;97966.09;5072753;28;19924;-77
2023/11/08 02:52:20;;;;;;;;;;;;;;;9.19;60.74;97973.41;5088978;28;19958;-75
2023/11/08 02:55:11;;;;;;;;;;;;;;;9.00;60.94;97967.25;5088484;28;20297;-77
2023/11/08 02:58:00;;;;;;;;;;;;;;;9.03;60.92;97974.81;5064946;28;20294;-77
2023/11/08 03:00:49;;;;;;;;;;;;;;;9.01;61.15;97971.59;5085176;28;20730;-75
2023/11/08 03:03:38;;;;;;;;;;;;;;;8.89;61.35;97975.59;5075856;28;19924;-77
2023/11/08 03:06:27;;;;;;;;;;;;;;;8.97;62.03;97973.28;5069379;28;19935;-76
2023/11/08 03:09:15;;;;;;;;;;;;;;;8.60;62.44;97975.00;5070618;28;19924;-76
2023/11/08 03:12:03;;;;;;;;;;;;;;;8.75;62.73;97972.03;5082828;28;19962;-76
2023/11/08 03:14:53;;;;;;;;;;;;;;;8.85;62.62;97968.34;5066474;28;19931;-75
2023/11/08 03:17:43;;;;;;;;;;;;;;;8.51;63.40;97969.47;5083103;28;19970;-75
2023/11/08 03:20:31;;;;;;;;;;;;;;;8.59;62.89;97978.81;5072947;28;19978;-77
2023/11/08 03:23:19;;;;;;;;;;;;;;;8.64;63.14;97984.16;5084341;28;20289;-77
2023/11/08 03:26:08;;;;;;;;;;;;;;;8.62;62.88;97984.44;5077133;28;19936;-77
2023/11/08 03:28:56;;;;;;;;;;;;;;;8.38;64.03;97984.56;5089065;28;19924;-76
2023/11/08 03:31:48;;;;;;;;;;;;;;;8.58;63.39;97986.16;5081511;28;20422;-76
2023/11/08 03:34:38;;;;;;;;;;;;;;;8.55;63.09;97989.44;5087375;28;20413;-76
2023/11/08 03:37:34;;;;;;;;;;;;;;;8.61;63.52;97987.44;5079478;28;19947;-76
2023/11/08 03:40:22;;;;;;;;;;;;;;;8.70;62.89;97985.69;5088841;28;20393;-76
2023/11/08 03:43:11;;;;;;;;;;;;;;;8.65;63.20;97978.44;5088255;28;19924;-76
2023/11/08 03:45:59;;;;;;;;;;;;;;;8.51;63.39;97988.41;5078108;28;19924;-76
2023/11/08 03:48:50;;;;;;;;;;;;;;;8.46;63.29;97984.97;5086806;28;19929;-76
2023/11/08 03:51:38;;;;;;;;;;;;;;;8.21;64.32;97989.69;5086289;28;20030;-80
2023/11/08 03:54:26;;;;;;;;;;;;;;;8.28;64.10;98005.53;5083839;28;19935;-76
2023/11/08 03:57:14;;;;;;;;;;;;;;;8.27;63.56;98004.75;5087705;28;19924;-76
2023/11/08 04:00:04;;;;;;;;;;;;;;;8.06;64.24;98006.13;5080394;28;19931;-76
2023/11/08 04:02:58;;;;;;;;;;;;;;;8.28;64.20;98011.75;5082550;28;19924;-76
2023/11/08 04:05:48;;;;;;;;;;;;;;;8.10;63.97;98012.59;5083783;28;19960;-78
2023/11/08 04:08:36;;;;;;;;;;;;;;;8.13;63.56;98007.38;5087470;28;19924;-76
2023/11/08 04:11:25;;;;;;;;;;;;;;;8.23;63.91;98009.13;5067158;28;20305;-75
2023/11/08 04:14:13;;;;;;;;;;;;;;;8.58;62.74;98009.72;5083284;28;20025;-76
2023/11/08 04:17:02;;;;;;;;;;;;;;;8.29;63.62;98007.94;5090475;28;20494;-76
2023/11/08 04:19:51;;;;;;;;;;;;;;;8.42;62.90;98005.66;5087707;28;20037;-76
2023/11/08 04:22:42;;;;;;;;;;;;;;;8.53;62.65;98012.50;5086556;28;19925;-76
2023/11/08 04:25:30;;;;;;;;;;;;;;;8.56;62.88;98011.91;5089493;28;20404;-76
2023/11/08 04:28:18;;;;;;;;;;;;;;;8.66;61.91;98006.31;5076551;28;19928;-77
2023/11/08 04:31:07;;;;;;;;;;;;;;;8.50;62.49;98013.09;5081055;28;19932;-76
2023/11/08 04:33:56;;;;;;;;;;;;;;;8.49;62.41;98023.13;5084685;28;20305;-76
2023/11/08 04:36:44;;;;;;;;;;;;;;;8.50;62.72;98019.31;5089487;28;20016;-76
2023/11/08 04:39:37;;;;;;;;;;;;;;;8.59;62.10;98024.88;5089692;28;19928;-76
2023/11/08 04:42:25;;;;;;;;;;;;;;;8.47;62.83;98013.66;5086795;28;19931;-76
2023/11/08 04:45:14;;;;;;;;;;;;;;;8.56;62.34;98020.81;5089117;28;19931;-76
2023/11/08 04:48:02;;;;;;;;;;;;;;;8.38;63.26;98019.75;5085667;28;19990;-76
2023/11/08 04:50:50;;;;;;;;;;;;;;;8.35;63.32;98025.72;5088704;28;20018;-77
2023/11/08 04:53:38;;;;;;;;;;;;;;;8.54;62.22;98017.63;5087078;28;19924;-76
2023/11/08 04:56:27;;;;;;;;;;;;;;;8.53;62.00;98017.91;5084430;28;20003;-79
2023/11/08 04:59:15;;;;;;;;;;;;;;;8.41;61.79;98021.06;5091002;28;19935;-78
2023/11/08 05:02:04;;;;;;;;;;;;;;;8.38;62.01;98017.06;5084136;28;20452;-77
2023/11/08 05:04:52;;;;;;;;;;;;;;;8.28;62.15;98022.59;5081809;28;19930;-76
2023/11/08 05:07:42;;;;;;;;;;;;;;;8.29;62.65;98015.25;5087925;28;19931;-77
2023/11/08 05:10:31;;;;;;;;;;;;;;;8.28;62.64;98032.59;5092075;28;19924;-76
2023/11/08 05:13:21;;;;;;;;;;;;;;;8.34;62.56;98028.72;5085711;28;20425;-78
2023/11/08 05:16:10;;;;;;;;;;;;;;;8.70;61.65;98031.72;5090558;28;19932;-76
2023/11/08 05:18:58;;;;;;;;;;;;;;;8.66;61.14;98033.41;5062768;28;20389;-78
2023/11/08 05:21:48;;;;;;;;;;;;;;;8.68;60.94;98030.41;5080988;28;20296;-76
2023/11/08 05:24:37;;;;;;;;;;;;;;;8.72;60.91;98015.97;5083011;28;20366;-79
2023/11/08 05:27:25;;;;;;;;;;;;;;;8.57;61.72;98024.34;5085434;28;19924;-77
2023/11/08 05:30:17;;;;;;;;;;;;;;;8.34;62.02;98026.03;5082960;28;19933;-76
2023/11/08 05:33:05;;;;;;;;;;;;;;;8.76;61.58;98021.59;5089382;28;19931;-76
2023/11/08 05:35:53;;;;;;;;;;;;;;;8.77;61.14;98013.19;5089505;28;19928;-82
2023/11/08 05:38:42;;;;;;;;;;;;;;;8.69;61.07;98015.78;5087713;28;19924;-77
2023/11/08 05:41:30;;;;;;;;;;;;;;;8.97;60.76;98016.66;5085208;28;19931;-76
2023/11/08 05:44:19;;;;;;;;;;;;;;;8.95;60.15;98013.41;5086813;28;19976;-76
2023/11/08 05:47:10;;;;;;;;;;;;;;;8.75;61.38;98020.81;5083232;28;20000;-76
2023/11/08 05:49:58;;;;;;;;;;;;;;;8.64;61.16;98024.78;5083737;28;19978;-77
2023/11/08 05:52:46;;;;;;;;;;;;;;;8.56;61.53;98023.53;5091243;28;19924;-76
2023/11/08 05:55:34;;;;;;;;;;;;;;;8.56;62.43;98022.72;5085950;28;19932;-76
2023/11/08 05:58:22;;;;;;;;;;;;;;;8.78;61.39;98020.19;5088336;28;20382;-76
2023/11/08 06:01:13;;;;;;;;;;;;;;;8.91;61.59;98024.88;5077196;28;20013;-76
2023/11/08 06:04:05;;;;;;;;;;;;;;;8.73;61.85;98024.91;5090619;28;19972;-77
2023/11/08 06:06:53;;;;;;;;;;;;;;;8.59;62.19;98033.00;5075441;28;19925;-76
2023/11/08 06:09:43;;;;;;;;;;;;;;;8.77;62.06;98025.91;5089515;28;19931;-76
2023/11/08 06:12:31;;;;;;;;;;;;;;;8.42;63.06;98038.94;5088980;28;20017;-76
2023/11/08 06:15:19;;;;;;;;;;;;;;;8.56;62.77;98028.16;5084261;28;20483;-76
2023/11/08 06:18:10;;;;;;;;;;;;;;;8.54;62.64;98042.00;5087921;28;20392;-76
2023/11/08 06:20:59;;;;;;;;;;;;;;;8.66;62.34;98044.25;5073364;28;19924;-77
2023/11/08 06:23:47;;;;;;;;;;;;;;;8.76;62.13;98038.66;5082504;28;19931;-77
2023/11/08 06:26:35;;;;;;;;;;;;;;;8.74;62.42;98048.19;5076515;28;20524;-78
2023/11/08 06:29:23;;;;;;;;;;;;;;;8.67;62.76;98051.25;5086837;28;20294;-76
2023/11/08 06:32:11;;;;;;;;;;;;;;;8.59;63.24;98049.25;5079139;28;19967;-76
2023/11/08 06:35:00;;;;;;;;;;;;;;;8.52;63.11;98046.91;5084116;28;20350;-76
2023/11/08 06:37:50;;;;;;;;;;;;;;;8.53;63.08;98050.41;5090864;28;19928;-75
2023/11/08 06:40:38;;;;;;;;;;;;;;;8.84;61.88;98048.00;5080251;28;19924;-78
2023/11/08 06:43:26;;;;;;;;;;;;;;;8.99;61.93;98055.88;5086664;28;19932;-76
2023/11/08 06:46:15;;;;;;;;;;;;;;;9.23;61.48;98063.06;5075994;28;19923;-75
2023/11/08 06:49:03;;;;;;;;;;;;;;;9.12;61.72;98057.84;5081890;28;19924;-76
2023/11/08 06:51:51;;;;;;;;;;;;;;;9.10;62.09;98065.44;5081063;28;19929;-78
2023/11/08 06:54:40;;;;;;;;;;;;;;;9.34;60.98;98059.06;5088364;28;19947;-76
2023/11/08 06:57:29;;;;;;;;;;;;;;;9.48;60.98;98069.91;5086592;28;20475;-79
2023/11/08 07:00:17;;;;;;;;;;;;;;;9.45;60.25;98066.72;5082847;28;19924;-77
2023/11/08 07:03:05;;;;;;;;;;;;;;;9.39;60.15;98067.91;5083450;28;19935;-76
2023/11/08 07:05:54;;;;;;;;;;;;;;;9.39;60.51;98072.53;5089564;28;20026;-76
2023/11/08 07:08:42;;;;;;;;;;;;;;;9.17;61.37;98081.34;5085300;28;19935;-76
2023/11/08 07:11:32;;;;;;;;;;;;;;;9.41;60.70;98079.25;5086009;28;19931;-79
2023/11/08 07:14:20;;;;;;;;;;;;;;;9.42;60.89;98086.28;5083801;28;19924;-76
2023/11/08 07:17:08;;;;;;;;;;;;;;;9.50;60.09;98087.50;5082760;28;19989;-76
2023/11/08 07:20:04;;;;;;;;;;;;;;;9.45;61.01;98082.97;5082964;28;21325;-76
2023/11/08 07:22:53;;;;;;;;;;;;;;;9.55;60.98;98084.72;5085190;28;19924;-76
2023/11/08 07:25:41;;;;;;;;;;;;;;;9.50;60.46;98086.72;5086040;28;20382;-78
2023/11/08 07:28:31;;;;;;;;;;;;;;;9.39;61.09;98099.66;5079356;28;19928;-76
2023/11/08 07:31:19;;;;;;;;;;;;;;;9.44;60.63;98103.06;5083726;28;20024;-76
2023/11/08 07:34:07;;;;;;;;;;;;;;;9.26;61.33;98103.13;5079465;28;20402;-76
2023/11/08 07:36:55;;;;;;;;;;;;;;;9.40;61.16;98107.47;5089599;28;20435;-78
2023/11/08 07:39:43;;;;;;;;;;;;;;;9.30;61.24;98106.84;5072351;28;19924;-77
2023/11/08 07:42:32;;;;;;;;;;;;;;;9.29;61.72;98100.63;5088325;28;19924;-79
2023/11/08 07:45:25;;;;;;;;;;;;;;;9.03;62.29;98105.69;5086211;28;19925;-76
2023/11/08 07:48:13;;;;;;;;;;;;;;;9.14;62.37;98109.03;5069020;28;20381;-83
2023/11/08 07:51:03;;;;;;;;;;;;;;;9.15;62.71;98097.88;5078530;28;20400;-76
2023/11/08 07:53:51;;;;;;;;;;;;;;;9.24;62.76;98099.91;5087476;28;19928;-78
2023/11/08 07:56:39;;;;;;;;;;;;;;;9.30;62.29;98101.44;5086328;28;19925;-78
2023/11/08 07:59:28;;;;;;;;;;;;;;;9.17;62.52;98109.25;5065538;28;20068;-76
2023/11/08 08:02:17;;;;;;;;;;;;;;;9.33;62.34;98100.84;5065572;28;19943;-78
2023/11/08 08:05:08;;;;;;;;;;;;;;;9.18;63.25;98104.63;5083111;28;20078;-76
2023/11/08 08:07:57;;;;;;;;;;;;;;;9.14;63.22;98109.81;5079170;28;19972;-81
2023/11/08 08:10:45;;;;;;;;;;;;;;;9.12;62.65;98116.66;5076598;28;19927;-76
2023/11/08 08:13:34;;;;;;;;;;;;;;;9.15;63.19;98111.44;5069859;28;19932;-78
2023/11/08 08:16:22;;;;;;;;;;;;;;;9.36;62.37;98109.19;5087695;28;19924;-78
2023/11/08 08:19:12;;;;;;;;;;;;;;;9.13;63.14;98116.34;5084745;28;20285;-78
2023/11/08 08:22:01;;;;;;;;;;;;;;;9.09;62.87;98122.66;5079573;28;20354;-75
2023/11/08 08:24:50;;;;;;;;;;;;;;;9.24;62.45;98125.13;5064016;28;19987;-76
2023/11/08 08:27:39;;;;;;;;;;;;;;;9.15;63.31;98122.28;5069073;28;19932;-75
2023/11/08 08:30:27;;;;;;;;;;;;;;;9.37;62.64;98124.34;5078059;28;19931;-77
2023/11/08 08:33:15;;;;;;;;;;;;;;;9.18;62.94;98123.59;5069227;28;19969;-75
2023/11/08 08:36:06;;;;;;;;;;;;;;;9.44;63.00;98118.53;5068148;28;19924;-76
2023/11/08 08:38:55;;;;;;;;;;;;;;;9.42;62.31;98124.25;5066282;28;19929;-75
2023/11/08 08:41:45;;;;;;;;;;;;;;;9.44;62.17;98122.06;5063072;28;19977;-77
2023/11/08 08:44:34;;;;;;;;;;;;;;;9.37;62.25;98123.53;5068973;28;19939;-76
2023/11/08 08:47:22;;;;;;;;;;;;;;;9.53;62.58;98129.50;5070508;28;19931;-75
2023/11/08 08:50:16;;;;;;;;;;;;;;;9.47;62.47;98126.06;5066199;28;19924;-75
2023/11/08 08:53:06;;;;;;;;;;;;;;;9.55;62.44;98121.88;5069362;28;20061;-77
2023/11/08 08:55:55;;;;;;;;;;;;;;;9.69;62.23;98122.69;5068963;28;20011;-75
2023/11/08 08:58:43;;;;;;;;;;;;;;;9.63;62.21;98115.75;5068400;28;19928;-76
2023/11/08 09:01:31;;;;;;;;;;;;;;;9.80;61.72;98113.28;5066739;28;19925;-76
2023/11/08 09:04:19;;;;;;;;;;;;;;;9.85;61.61;98115.84;5061386;28;20298;-76
2023/11/08 09:07:07;;;;;;;;;;;;;;;9.92;61.47;98131.75;5061943;28;20015;-76
2023/11/08 09:09:57;;;;;;;;;;;;;;;9.84;61.10;98124.31;5066168;28;20380;-75
2023/11/08 09:12:48;;;;;;;;;;;;;;;9.72;61.37;98124.81;5066422;28;19980;-76
2023/11/08 09:15:37;;;;;;;;;;;;;;;9.86;61.76;98122.91;5064224;28;19933;-75
2023/11/08 09:18:26;;;;;;;;;;;;;;;9.76;61.56;98125.03;5064566;28;19929;-75
2023/11/08 09:21:15;;;;;;;;;;;;;;;9.85;61.44;98126.72;5071005;28;19948;-76
2023/11/08 09:24:06;;;;;;;;;;;;;;;9.79;61.62;98124.41;5085273;28;19928;-75
2023/11/08 09:26:55;;;;;;;;;;;;;;;9.95;61.38;98118.38;5086933;28;19932;-75
2023/11/08 09:29:43;;;;;;;;;;;;;;;10.10;61.35;98119.97;5082054;28;20408;-74
2023/11/08 09:32:31;;;;;;;;;;;;;;;10.38;60.88;98118.06;5071447;28;19958;-75
2023/11/08 09:35:21;;;;;;;;;;;;;;;10.64;60.04;98125.66;5087062;28;19932;-72
2023/11/08 09:38:12;;;;;;;;;;;;;;;10.63;59.54;98122.13;5084304;28;19931;-79
2023/11/08 09:41:00;;;;;;;;;;;;;;;10.61;59.89;98118.13;5087735;28;19939;-79
2023/11/08 09:43:52;;;;;;;;;;;;;;;10.86;58.45;98114.00;5081568;28;20076;-76
2023/11/08 09:46:41;;;;;;;;;;;;;;;10.69;58.65;98131.78;5085625;28;20010;-75
2023/11/08 09:49:29;;;;;;;;;;;;;;;10.71;57.83;98124.13;5074306;28;19924;-80
2023/11/08 09:52:21;;;;;;;;;;;;;;;10.47;58.08;98129.81;5079880;28;19928;-77
2023/11/08 09:55:10;;;;;;;;;;;;;;;10.52;58.29;98125.38;5087094;28;20051;-75
2023/11/08 09:58:00;;;;;;;;;;;;;;;10.64;57.88;98126.44;5077976;28;19951;-76
2023/11/08 10:00:50;;;;;;;;;;;;;;;10.60;57.25;98130.09;5084286;28;20404;-78
2023/11/08 10:06:59;;;;;;;;;;;;;;;10.70;56.42;98127.13;5887616;23;20970;-94
2023/11/08 10:09:48;;;;;;;;;;;;;;;10.72;56.72;98135.81;4969733;23;20015;-91
2023/11/08 10:12:36;;;;;;;;;;;;;;;10.83;56.32;98131.75;4948741;28;20013;-93
2023/11/08 10:15:25;;;;;;;;;;;;;;;10.91;55.38;98128.28;4953931;28;19926;-92
2023/11/08 10:18:15;;;;;;;;;;;;;;;10.97;54.98;98112.66;4953112;28;19927;-89
2023/11/08 10:21:25;;;;;;;;;;;;;;;10.98;54.10;98117.78;4951759;28;19996;-86
2023/11/08 10:24:15;;;;;;;;;;;;;;;11.01;54.92;98117.16;4947104;28;19974;-87
2023/11/08 10:27:12;;;;;;;;;;;;;;;11.13;54.41;98115.78;4951568;28;19933;-87
2023/11/08 10:30:15;;;;;;;;;;;;;;;11.23;53.91;98099.22;4944555;28;19926;-87
2023/11/08 10:33:07;;;;;;;;;;;;;;;11.28;53.45;98099.09;4954050;28;19948;-86
2023/11/08 10:35:57;;;;;;;;;;;;;;;11.06;53.72;98102.66;4948504;28;19977;-89
2023/11/08 10:38:45;;;;;;;;;;;;;;;11.08;53.38;98110.47;4958739;28;20073;-90
2023/11/08 10:41:34;;;;;;;;;;;;;;;10.91;54.08;98100.28;4941856;28;20050;-86
2023/11/08 10:44:23;;;;;;;;;;;;;;;11.02;53.87;98101.66;4946947;28;19994;-84
2023/11/08 10:47:12;;;;;;;;;;;;;;;10.90;53.88;98110.38;4950154;28;19933;-84
2023/11/08 10:50:00;;;;;;;;;;;;;;;10.85;53.97;98102.31;4949395;28;20020;-86
2023/11/08 10:52:50;;;;;;;;;;;;;;;10.65;54.96;98103.63;4946274;28;19998;-80
2023/11/08 10:55:39;;;;;;;;;;;;;;;10.63;55.57;98110.47;4943233;28;19942;-90
2023/11/08 10:58:27;;;;;;;;;;;;;;;10.45;56.51;98102.16;4950476;28;20001;-90
2023/11/08 11:01:16;;;;;;;;;;;;;;;10.36;56.66;98106.69;4941201;28;20316;-79
2023/11/08 11:04:05;;;;;;;;;;;;;;;10.41;56.67;98112.03;4941108;28;19933;-81
2023/11/08 11:06:54;;;;;;;;;;;;;;;10.51;55.92;98099.34;4943987;28;19934;-84
2023/11/08 11:09:44;;;;;;;;;;;;;;;10.52;55.56;98104.47;4955694;28;20410;-79
2023/11/08 11:12:36;;;;;;;;;;;;;;;10.55;54.63;98101.13;4964139;28;19941;-85
2023/11/08 11:15:26;;;;;;;;;;;;;;;10.91;54.85;98098.38;4968536;28;20092;-85
2023/11/08 11:18:15;;;;;;;;;;;;;;;11.10;54.11;98100.13;4952160;28;19926;-83
2023/11/08 11:21:04;;;;;;;;;;;;;;;11.13;53.97;98096.75;4967730;28;19930;-85
2023/11/08 11:23:54;;;;;;;;;;;;;;;11.24;54.33;98092.69;4950074;28;19937;-78
2023/11/08 11:26:46;;;;;;;;;;;;;;;11.34;53.26;98086.97;4957601;28;20543;-81
2023/11/08 11:29:34;;;;;;;;;;;;;;;11.61;53.25;98090.63;4964408;28;19930;-83
2023/11/08 11:32:46;;;;;;;;;;;;;;;11.52;52.93;98083.25;4970141;28;19970;-86
2023/11/08 11:35:53;;;;;;;;;;;;;;;11.49;53.31;98088.50;4953860;28;19929;-89
2023/11/08 11:38:42;;;;;;;;;;;;;;;11.22;53.39;98092.19;4966310;28;19957;-89
2023/11/08 11:41:30;;;;;;;;;;;;;;;11.00;53.16;98090.28;4952528;28;20297;-86
2023/11/08 11:44:20;;;;;;;;;;;;;;;10.97;53.47;98091.72;4968688;28;20013;-88
2023/11/08 11:47:08;;;;;;;;;;;;;;;10.83;53.80;98087.47;4962030;28;19937;-87
2023/11/08 11:49:59;;;;;;;;;;;;;;;10.78;54.18;98093.00;4970103;28;19926;-87
2023/11/08 11:52:48;;;;;;;;;;;;;;;10.79;54.08;98092.69;4965417;28;19933;-80
2023/11/08 11:55:36;;;;;;;;;;;;;;;10.81;54.19;98087.75;4975750;28;19977;-82
2023/11/08 11:58:24;;;;;;;;;;;;;;;10.93;53.46;98098.09;4976784;28;19965;-80
2023/11/08 12:01:19;;;;;;;;;;;;;;;11.21;53.10;98093.31;4958919;28;19926;-80
2023/11/08 12:04:07;;;;;;;;;;;;;;;11.42;52.70;98080.78;4959372;28;19927;-82
2023/11/08 12:06:56;;;;;;;;;;;;;;;11.39;52.23;98089.56;4972360;28;19926;-79
2023/11/08 12:09:45;;;;;;;;;;;;;;;11.45;52.04;98082.91;4974812;28;19930;-80
2023/11/08 12:12:34;;;;;;;;;;;;;;;11.51;51.13;98087.09;4969400;28;20435;-80
2023/11/08 12:15:23;;;;;;;;;;;;;;;11.45;51.50;98080.19;4956699;28;19933;-80
2023/11/08 12:18:13;;;;;;;;;;;;;;;11.45;51.89;98082.91;4974142;28;19926;-82
2023/11/08 12:21:04;;;;;;;;;;;;;;;11.52;52.23;98077.81;4969357;28;20418;-81
2023/11/08 12:23:53;;;;;;;;;;;;;;;11.37;51.58;98080.13;4971362;28;19926;-80
2023/11/08 12:26:41;;;;;;;;;;;;;;;11.57;51.45;98084.22;4960734;28;19925;-80
2023/11/08 12:29:29;;;;;;;;;;;;;;;11.50;51.45;98080.03;4966582;28;19926;-79
2023/11/08 12:32:17;;;;;;;;;;;;;;;11.50;51.18;98066.44;4965400;28;19977;-80
2023/11/08 12:35:07;;;;;;;;;;;;;;;11.54;51.14;98070.13;4970147;28;19953;-81
2023/11/08 12:37:58;;;;;;;;;;;;;;;11.61;51.42;98063.41;4971381;28;20158;-81
2023/11/08 12:40:47;;;;;;;;;;;;;;;11.55;51.40;98063.56;4964634;28;19926;-81
2023/11/08 12:43:35;;;;;;;;;;;;;;;11.55;51.21;98066.28;4956166;28;19932;-82
2023/11/08 12:46:48;;;;;;;;;;;;;;;11.49;51.61;98062.09;4968810;28;20297;-80
2023/11/08 12:49:36;;;;;;;;;;;;;;;11.49;51.08;98059.38;4966075;28;19934;-81
2023/11/08 12:52:26;;;;;;;;;;;;;;;11.54;51.35;98053.78;4970185;28;19930;-86
2023/11/08 12:55:14;;;;;;;;;;;;;;;11.51;51.27;98051.72;4961249;28;20376;-86
2023/11/08 12:58:17;;;;;;;;;;;;;;;11.67;51.26;98043.13;4954734;28;19933;-85
2023/11/08 13:01:06;;;;;;;;;;;;;;;11.35;51.15;98055.16;4967594;28;19926;-85
2023/11/08 13:03:55;;;;;;;;;;;;;;;11.55;51.31;98043.72;4956860;28;20025;-85
2023/11/08 13:06:43;;;;;;;;;;;;;;;11.64;51.37;98030.94;4958683;28;19942;-84
2023/11/08 13:09:35;;;;;;;;;;;;;;;11.63;51.21;98026.63;4969804;28;20570;-85
2023/11/08 13:12:24;;;;;;;;;;;;;;;11.63;51.48;98023.91;4955530;28;19934;-85
2023/11/08 13:15:12;;;;;;;;;;;;;;;11.59;50.97;98017.47;4969049;28;20580;-85
2023/11/08 13:18:03;;;;;;;;;;;;;;;11.62;51.37;98019.59;4956493;28;20389;-85
2023/11/08 13:20:51;;;;;;;;;;;;;;;11.62;50.58;98018.78;4959399;28;19945;-86
2023/11/08 13:23:40;;;;;;;;;;;;;;;11.69;50.20;98019.91;4972883;28;20025;-85
2023/11/08 13:26:49;;;;;;;;;;;;;;;11.69;50.94;98014.47;4975606;28;19926;-84
2023/11/08 13:29:37;;;;;;;;;;;;;;;11.80;50.09;98017.69;4956061;28;19997;-85
2023/11/08 13:32:26;;;;;;;;;;;;;;;11.83;50.58;98013.59;4952398;28;19926;-85
2023/11/08 13:35:17;;;;;;;;;;;;;;;11.72;50.27;98013.06;4977566;28;19931;-84
2023/11/08 13:38:07;;;;;;;;;;;;;;;11.70;50.62;98012.56;4961174;28;19930;-84
2023/11/08 13:40:56;;;;;;;;;;;;;;;11.79;50.57;98005.22;4956817;28;19930;-84
2023/11/08 13:43:46;;;;;;;;;;;;;;;11.64;50.79;98009.16;4965096;28;19925;-84
2023/11/08 13:46:34;;;;;;;;;;;;;;;11.73;51.00;98011.94;4983804;28;19934;-84
2023/11/08 13:49:23;;;;;;;;;;;;;;;11.65;50.59;98018.13;4958895;28;19926;-84
2023/11/08 13:52:12;;;;;;;;;;;;;;;11.58;50.73;98015.09;4970818;28;19926;-84
2023/11/08 13:55:01;;;;;;;;;;;;;;;11.64;50.62;98008.38;4972259;28;20309;-84
2023/11/08 13:57:49;;;;;;;;;;;;;;;11.69;51.20;98005.50;4957322;28;20024;-84
2023/11/08 14:00:39;;;;;;;;;;;;;;;11.74;50.97;97998.00;4953466;28;20030;-84
2023/11/08 14:03:27;;;;;;;;;;;;;;;11.67;50.34;97996.88;4972299;28;19930;-84
2023/11/08 14:06:16;;;;;;;;;;;;;;;11.74;51.04;98002.63;4965317;28;20065;-82
2023/11/08 14:09:05;;;;;;;;;;;;;;;11.55;50.27;98006.41;4970064;28;19925;-88
2023/11/08 14:11:54;;;;;;;;;;;;;;;11.67;50.81;98005.84;4969301;28;20009;-79
2023/11/08 14:14:42;;;;;;;;;;;;;;;11.67;50.15;98003.09;4964061;28;19933;-88
2023/11/08 14:17:31;;;;;;;;;;;;;;;11.59;49.94;97994.91;4961961;28;19926;-86
2023/11/08 14:20:20;;;;;;;;;;;;;;;11.63;49.81;98001.34;4968047;28;19982;-86
2023/11/08 14:23:10;;;;;;;;;;;;;;;11.58;49.77;97993.31;4952153;28;19934;-84
2023/11/08 14:25:59;;;;;;;;;;;;;;;11.49;50.55;98001.44;4949794;28;20405;-93
2023/11/08 14:28:48;;;;;;;;;;;;;;;11.57;50.24;97995.22;4959470;28;20420;-92
2023/11/08 14:31:36;;;;;;;;;;;;;;;11.65;50.29;97999.09;4969773;28;19930;-89
2023/11/08 14:34:26;;;;;;;;;;;;;;;11.67;50.59;97996.88;4955721;28;19926;-87
2023/11/08 14:37:14;;;;;;;;;;;;;;;11.68;50.95;97991.09;4963050;28;19934;-81
2023/11/08 14:40:02;;;;;;;;;;;;;;;11.58;50.83;97996.03;4969882;28;19926;-83
2023/11/08 14:42:51;;;;;;;;;;;;;;;11.54;50.31;97993.94;4970218;28;20433;-82
2023/11/08 14:45:40;;;;;;;;;;;;;;;11.42;50.85;97985.56;4969317;28;20592;-81
2023/11/08 14:48:28;;;;;;;;;;;;;;;11.39;51.13;97979.94;4976706;28;20392;-83
2023/11/08 14:51:20;;;;;;;;;;;;;;;11.46;51.13;97977.59;4953681;28;20377;-86